Time;durP1;ratioP1;P1;durP2;ratioP2;P2;SDS_P1;SDS_P2;PMS_P1;PMS_P2;Temp;Humidity;BMP_temperature;BMP_pressure;BME280_temperature;BME280_humidity;BME280_pressure;Samples;Min_cycle;Max_cycle;Signal;HPM_P1;HPM_P2
2022/09/03 00:01:10;;;;;;;7.50;2.20;;;;;;;13.00;61.71;99301.18;104818;1288;22570;-85
2022/09/03 00:04:10;;;;;;;10.20;2.30;;;;;;;12.95;61.83;99296.20;105137;1288;27456;-85
2022/09/03 00:06:56;;;;;;;6.80;2.30;;;;;;;12.95;61.91;99292.69;105084;1288;24327;-87
2022/09/03 00:09:38;;;;;;;10.10;2.30;;;;;;;12.94;61.81;99288.65;105099;1288;25437;-84
2022/09/03 00:13:00;;;;;;;9.10;2.50;;;;;;;12.93;61.94;99289.77;105125;1287;22575;-85
2022/09/03 00:15:34;;;;;;;9.50;2.60;;;;;;;12.92;62.09;99290.06;105109;1288;22551;-86
2022/09/03 00:18:33;;;;;;;11.40;2.50;;;;;;;12.92;62.12;99285.41;105171;1285;24227;-88
2022/09/03 00:21:19;;;;;;;8.90;2.60;;;;;;;12.90;62.03;99283.81;105118;1287;24326;-86
2022/09/03 00:24:08;;;;;;;7.70;2.30;;;;;;;12.85;62.19;99282.17;104032;1288;1520768;-86
2022/09/03 00:26:54;;;;;;;9.50;2.50;;;;;;;12.81;62.15;99284.13;104853;1285;22908;-85
2022/09/03 00:29:53;;;;;;;8.40;2.30;;;;;;;12.81;62.29;99288.41;105154;1286;23248;-85
2022/09/03 00:32:50;;;;;;;9.40;2.00;;;;;;;12.83;62.37;99289.67;105204;1288;25521;-85
2022/09/03 00:35:28;;;;;;;8.30;2.30;;;;;;;12.84;62.32;99289.42;105094;1288;23520;-85
2022/09/03 00:38:03;;;;;;;8.00;2.20;;;;;;;12.85;62.31;99290.45;105097;1285;23986;-88
2022/09/03 00:41:17;;;;;;;8.70;2.50;;;;;;;12.85;62.46;99288.96;105006;1288;25353;-86
2022/09/03 00:44:32;;;;;;;8.70;2.60;;;;;;;12.86;62.39;99292.33;105301;1281;25417;-85
2022/09/03 00:47:23;;;;;;;8.30;2.10;;;;;;;12.86;62.50;99284.49;105844;1281;22541;-85
2022/09/03 00:50:03;;;;;;;7.60;2.40;;;;;;;12.85;62.54;99280.23;105734;1279;22652;-86
2022/09/03 00:53:00;;;;;;;8.40;2.40;;;;;;;12.86;62.64;99278.70;105822;1279;26690;-86
2022/09/03 00:55:40;;;;;;;6.90;2.50;;;;;;;12.87;62.63;99274.55;105758;1279;25609;-85
2022/09/03 00:58:36;;;;;;;9.90;2.20;;;;;;;12.85;62.59;99269.70;105845;1279;22821;-86
2022/09/03 01:01:32;;;;;;;8.00;1.90;;;;;;;12.83;62.57;99272.73;105582;1279;25943;-83
2022/09/03 01:04:50;;;;;;;8.20;1.80;;;;;;;12.80;62.59;99273.48;105197;1281;22832;-83
2022/09/03 01:07:41;;;;;;;6.70;2.10;;;;;;;12.72;62.56;99277.67;105599;1281;24286;-85
2022/09/03 01:10:24;;;;;;;6.50;1.90;;;;;;;12.66;62.63;99278.83;105444;1279;25623;-84
2022/09/03 01:13:37;;;;;;;7.10;2.10;;;;;;;12.60;62.65;99280.56;105610;1279;24267;-82
2022/09/03 01:16:34;;;;;;;8.60;1.90;;;;;;;12.52;62.73;99279.77;105547;1281;22563;-88
2022/09/03 01:19:58;;;;;;;6.80;2.20;;;;;;;12.41;62.78;99276.46;105739;1281;22544;-89
2022/09/03 01:23:31;;;;;;;7.10;2.10;;;;;;;12.29;62.81;99279.00;105808;1281;22572;-88
2022/09/03 01:26:48;;;;;;;6.10;2.20;;;;;;;12.22;62.85;99276.35;105790;1279;22495;-84
2022/09/03 01:29:57;;;;;;;6.30;2.00;;;;;;;12.17;63.07;99274.02;105779;1279;22682;-89
2022/09/03 01:33:09;;;;;;;7.80;2.40;;;;;;;12.15;63.01;99272.77;105861;1281;22560;-86
2022/09/03 01:36:28;;;;;;;8.50;2.30;;;;;;;12.08;62.94;99274.70;105670;1279;22560;-85
2022/09/03 01:39:29;;;;;;;8.80;2.50;;;;;;;12.01;63.18;99274.17;105025;1287;24268;-85
2022/09/03 01:42:54;;;;;;;7.30;2.80;;;;;;;11.94;63.22;99271.49;104982;1287;22573;-86
2022/09/03 01:45:31;;;;;;;8.90;2.20;;;;;;;11.83;63.21;99271.34;104306;1294;24290;-89
2022/09/03 01:48:29;;;;;;;7.90;2.20;;;;;;;11.75;63.37;99266.57;104293;1294;24433;-87
2022/09/03 01:51:25;;;;;;;9.80;2.30;;;;;;;11.67;63.54;99272.00;103867;1299;24314;-85
2022/09/03 01:54:40;;;;;;;6.10;2.10;;;;;;;11.57;63.52;99276.84;103970;1299;22586;-85
2022/09/03 01:57:29;;;;;;;8.00;2.90;;;;;;;11.50;63.45;99286.10;103686;1300;24290;-86
2022/09/03 02:00:37;;;;;;;10.50;3.10;;;;;;;11.44;63.52;99292.95;103944;1299;24332;-84
2022/09/03 02:03:16;;;;;;;10.40;3.70;;;;;;;11.37;63.59;99294.64;103707;1302;22736;-84
2022/09/03 02:06:01;;;;;;;;;;;;;;;;;;;;;
2022/09/03 02:08:37;;;;;;;10.60;3.20;;;;;;;11.30;63.65;99291.46;103800;1302;22605;-86
2022/09/03 02:11:22;;;;;;;9.60;2.80;;;;;;;11.25;63.78;99291.98;103748;1302;22567;-89
2022/09/03 02:14:05;;;;;;;9.00;2.70;;;;;;;11.19;63.90;99292.20;103816;1302;22566;-86
2022/09/03 02:16:53;;;;;;;8.90;2.40;;;;;;;11.13;63.94;99290.15;103938;1296;25235;-84
2022/09/03 02:19:41;;;;;;;7.50;2.40;;;;;;;11.05;63.94;99289.61;104159;1297;22588;-85
2022/09/03 02:22:29;;;;;;;7.90;2.50;;;;;;;10.99;64.03;99286.69;104441;1288;25425;-84
2022/09/03 02:25:09;;;;;;;6.50;2.20;;;;;;;10.94;64.06;99281.33;105097;1287;25398;-83
2022/09/03 02:27:59;;;;;;;;;;;;;;;;;;;;;
2022/09/03 02:30:58;;;;;;;8.80;2.50;;;;;;;10.87;64.24;99288.39;105755;1280;22550;-85
2022/09/03 02:33:53;;;;;;;8.80;2.40;;;;;;;10.89;64.41;99289.55;105790;1280;25548;-85
2022/09/03 02:36:55;;;;;;;6.40;2.40;;;;;;;10.97;64.63;99285.06;105702;1281;23041;-85
2022/09/03 02:39:36;;;;;;;7.40;3.00;;;;;;;11.01;64.45;99283.70;105771;1281;24345;-85
2022/09/03 02:42:19;;;;;;;7.70;2.40;;;;;;;11.02;64.53;99275.24;105721;1280;24225;-84
2022/09/03 02:45:25;;;;;;;9.40;2.90;;;;;;;10.95;64.60;99273.07;105703;1279;24286;-86
2022/09/03 02:48:23;;;;;;;7.70;2.60;;;;;;;10.86;64.53;99271.40;104995;1288;25511;-85
2022/09/03 02:51:30;;;;;;;8.50;3.00;;;;;;;10.73;64.36;99271.23;104796;1287;25493;-86
2022/09/03 02:54:39;;;;;;;;;;;;;;;;;;;;;
2022/09/03 02:57:29;;;;;;;8.20;2.50;;;;;;;10.52;64.71;99274.98;104933;1288;22645;-83
2022/09/03 03:00:48;;;;;;;9.30;2.60;;;;;;;10.44;64.75;99269.84;104836;1288;25759;-85
2022/09/03 03:04:00;;;;;;;;;;;;;;;;;;;;;
2022/09/03 03:06:54;;;;;;;;;;;;;;;;;;;;;
2022/09/03 03:09:44;;;;;;;7.90;2.70;;;;;;;10.22;65.08;99271.28;104659;1288;24230;-85
2022/09/03 03:12:37;;;;;;;;;;;;;;;;;;;;;
2022/09/03 03:15:47;;;;;;;;;;;;;;;;;;;;;
2022/09/03 03:18:35;;;;;;;;;;;;;;;;;;;;;
2022/09/03 03:21:38;;;;;;;;;;;;;;;;;;;;;
2022/09/03 03:25:01;;;;;;;;;;;;;;;;;;;;;
2022/09/03 03:28:19;;;;;;;;;;;;;;;;;;;;;
2022/09/03 03:32:01;;;;;;;;;;;;;;;;;;;;;
2022/09/03 03:35:03;;;;;;;7.80;2.10;;;;;;;10.33;65.71;99280.41;105036;1287;22713;-85
2022/09/03 03:37:56;;;;;;;7.20;2.20;;;;;;;10.38;65.66;99285.95;105077;1288;25596;-83
2022/09/03 03:40:51;;;;;;;9.50;2.40;;;;;;;10.40;65.60;99290.22;105096;1288;22823;-85
2022/09/03 03:44:42;;;;;;;6.90;1.90;;;;;;;10.43;65.63;99289.51;105105;1287;22575;-86
2022/09/03 03:47:12;;;;;;;8.50;2.00;;;;;;;10.44;65.73;99282.84;104295;1297;25580;-84
2022/09/03 03:49:44;;;;;;;9.00;1.90;;;;;;;10.46;65.63;99286.23;104070;1296;22592;-85
2022/09/03 03:52:15;;;;;;;5.40;2.20;;;;;;;10.47;65.62;99283.33;104104;1296;25549;-83
2022/09/03 03:54:45;;;;;;;7.80;2.10;;;;;;;10.49;65.79;99288.55;104034;1296;25339;-84
2022/09/03 03:57:21;;;;;;;13.00;2.80;;;;;;;10.49;65.77;99289.95;104075;1297;22633;-85
2022/09/03 03:59:49;;;;;;;10.20;2.60;;;;;;;10.44;65.66;99288.56;104072;1296;25383;-84
2022/09/03 04:02:17;;;;;;;13.80;3.20;;;;;;;10.38;65.80;99286.98;104019;1295;25265;-84
2022/09/03 04:04:44;;;;;;;13.50;3.50;;;;;;;10.33;65.65;99285.56;104064;1297;22778;-85
2022/09/03 04:07:16;;;;;;;12.70;3.20;;;;;;;10.25;65.67;99285.00;104167;1296;26131;-83
2022/09/03 04:09:48;;;;;;;17.50;3.50;;;;;;;10.22;65.80;99285.36;104522;1287;25361;-84
2022/09/03 04:12:21;;;;;;;11.00;2.70;;;;;;;10.22;65.92;99290.32;104987;1288;24386;-84
2022/09/03 04:14:58;;;;;;;23.00;4.00;;;;;;;10.24;65.99;99285.46;105005;1288;25343;-83
2022/09/03 04:17:28;;;;;;;12.90;3.60;;;;;;;10.18;65.86;99287.59;105101;1288;22551;-84
2022/09/03 04:20:03;;;;;;;20.10;3.70;;;;;;;10.18;65.96;99290.80;105044;1287;23925;-83
2022/09/03 04:22:43;;;;;;;19.10;4.30;;;;;;;10.09;65.93;99288.02;104912;1288;22766;-83
2022/09/03 04:25:16;;;;;;;16.90;3.20;;;;;;;10.05;66.10;99288.47;105507;1279;25304;-83
2022/09/03 04:27:43;;;;;;;12.70;2.90;;;;;;;10.05;66.16;99292.52;105735;1281;22560;-83
2022/09/03 04:30:13;;;;;;;13.50;2.70;;;;;;;10.08;66.15;99291.13;105668;1281;22541;-83
2022/09/03 04:32:59;;;;;;;13.80;3.20;;;;;;;10.12;66.08;99290.86;105713;1281;22628;-85
2022/09/03 04:35:42;;;;;;;9.50;2.80;;;;;;;10.20;66.24;99294.21;105761;1281;24265;-84
2022/09/03 04:38:20;;;;;;;10.50;2.80;;;;;;;10.30;66.41;99294.45;105711;1280;22681;-85
2022/09/03 04:40:58;;;;;;;11.40;2.70;;;;;;;10.40;66.37;99296.66;105425;1283;22548;-87
2022/09/03 04:43:31;;;;;;;12.70;2.60;;;;;;;10.47;66.42;99292.23;105744;1280;24245;-86
2022/09/03 04:46:05;;;;;;;9.90;2.70;;;;;;;10.52;66.34;99290.27;105845;1281;22625;-84
2022/09/03 04:48:40;;;;;;;11.60;3.10;;;;;;;10.55;66.36;99293.29;105344;1280;23181;-83
2022/09/03 04:51:15;;;;;;;9.70;3.10;;;;;;;10.58;66.44;99296.14;105726;1280;22887;-84
2022/09/03 04:53:50;;;;;;;13.00;3.30;;;;;;;10.62;66.31;99295.66;105716;1280;25316;-83
2022/09/03 04:56:21;;;;;;;14.60;2.80;;;;;;;10.66;66.37;99294.10;105775;1281;22546;-84
2022/09/03 04:59:19;;;;;;;11.90;2.60;;;;;;;10.73;66.40;99285.09;105768;1281;22538;-87
2022/09/03 05:01:59;;;;;;;8.60;3.30;;;;;;;10.86;66.40;99284.23;105489;1283;25715;-85
2022/09/03 05:04:29;;;;;;;14.60;5.60;;;;;;;10.98;66.52;99287.98;105706;1281;22539;-84
2022/09/03 05:07:09;;;;;;;20.00;8.30;;;;;;;11.10;66.54;99289.11;105865;1279;22607;-86
2022/09/03 05:09:46;;;;;;;27.30;10.60;;;;;;;11.19;66.51;99290.07;105736;1281;24207;-85
2022/09/03 05:12:16;;;;;;;28.80;11.20;;;;;;;11.30;66.48;99292.48;105784;1279;26434;-83
2022/09/03 05:14:48;;;;;;;27.40;11.30;;;;;;;11.40;66.27;99290.57;105679;1282;24947;-85
2022/09/03 05:17:20;;;;;;;22.80;9.80;;;;;;;11.50;66.45;99293.70;105785;1280;25359;-84
2022/09/03 05:19:59;;;;;;;22.00;8.30;;;;;;;11.57;66.47;99294.13;105760;1281;22543;-85
2022/09/03 05:22:33;;;;;;;24.00;7.80;;;;;;;11.62;66.43;99295.33;105763;1280;24317;-88
2022/09/03 05:25:10;;;;;;;25.40;9.40;;;;;;;11.73;66.52;99291.89;105753;1280;22809;-88
2022/09/03 05:27:39;;;;;;;23.90;9.70;;;;;;;11.87;66.57;99291.62;105839;1279;24350;-83
2022/09/03 05:30:25;;;;;;;26.30;9.80;;;;;;;12.00;66.48;99292.11;105778;1279;22570;-90
2022/09/03 05:33:01;;;;;;;29.40;11.30;;;;;;;12.13;66.41;99294.29;105726;1281;22567;-86
2022/09/03 05:35:34;;;;;;;31.60;12.90;;;;;;;12.25;66.47;99295.53;105579;1281;24089;-86
2022/09/03 05:38:20;;;;;;;32.30;13.10;;;;;;;12.40;66.50;99299.61;105730;1281;26761;-84
2022/09/03 05:41:04;;;;;;;28.10;11.10;;;;;;;12.55;66.51;99297.37;105807;1281;22493;-85
2022/09/03 05:43:37;;;;;;;23.10;9.30;;;;;;;12.70;66.51;99303.34;105825;1281;22564;-84
2022/09/03 05:46:10;;;;;;;15.40;6.00;;;;;;;12.83;66.39;99300.96;105720;1279;24195;-85
2022/09/03 05:48:47;;;;;;;10.90;4.80;;;;;;;12.96;66.37;99300.42;105734;1281;22579;-84
2022/09/03 05:51:51;;;;;;;12.00;4.40;;;;;;;13.11;66.41;99296.98;105448;1282;23002;-84
2022/09/03 05:54:30;;;;;;;9.90;3.90;;;;;;;13.30;66.47;99296.77;105677;1282;22636;-84
2022/09/03 05:57:11;;;;;;;10.50;3.70;;;;;;;13.46;66.29;99291.55;105732;1281;23368;-83
2022/09/03 06:00:00;;;;;;;12.60;4.00;;;;;;;13.61;66.11;99291.34;105818;1279;24275;-83
2022/09/03 06:02:35;;;;;;;12.40;3.20;;;;;;;13.76;66.20;99292.34;105748;1282;22533;-88
2022/09/03 06:05:16;;;;;;;11.70;3.30;;;;;;;13.89;66.10;99297.13;105705;1280;25443;-86
2022/09/03 06:07:59;;;;;;;9.30;2.90;;;;;;;14.02;66.01;99292.30;105735;1281;22592;-84
2022/09/03 06:10:50;;;;;;;9.20;2.70;;;;;;;14.16;66.14;99289.04;105773;1282;24207;-84
2022/09/03 06:13:28;;;;;;;10.70;2.60;;;;;;;14.27;65.90;99294.02;105718;1281;23934;-85
2022/09/03 06:16:07;;;;;;;11.30;2.60;;;;;;;14.22;65.65;99294.92;105812;1278;22540;-87
2022/09/03 06:18:42;;;;;;;9.50;2.60;;;;;;;14.05;65.74;99295.66;106024;1277;25441;-84
2022/09/03 06:21:26;;;;;;;8.50;2.50;;;;;;;13.89;65.84;99298.77;105888;1277;25628;-84
2022/09/03 06:24:15;;;;;;;8.60;2.60;;;;;;;13.80;65.94;99301.27;105876;1278;22800;-84
2022/09/03 06:27:13;;;;;;;11.20;3.20;;;;;;;13.75;66.10;99302.59;105873;1281;22769;-85
2022/09/03 06:30:10;;;;;;;9.20;2.30;;;;;;;13.73;66.04;99298.98;105826;1280;25630;-86
2022/09/03 06:33:04;;;;;;;10.30;2.30;;;;;;;13.85;66.16;99299.84;105803;1281;22538;-85
2022/09/03 06:36:16;;;;;;;13.00;2.60;;;;;;;14.11;66.01;99300.73;105919;1278;24326;-85
2022/09/03 06:39:26;;;;;;;8.70;2.10;;;;;;;14.38;66.18;99299.52;106034;1278;25528;-84
2022/09/03 06:43:00;;;;;;;6.80;2.10;;;;;;;14.65;66.07;99304.39;105766;1283;23949;-83
2022/09/03 06:45:18;;;;;;;5.90;2.10;;;;;;;14.92;66.13;99301.06;105727;1281;22846;-85
2022/09/03 06:48:26;;;;;;;9.00;2.30;;;;;;;15.05;65.84;99298.70;105900;1281;25336;-85
2022/09/03 06:51:35;;;;;;;8.50;2.30;;;;;;;15.12;65.88;99301.79;105863;1278;22538;-86
2022/09/03 06:54:31;;;;;;;8.30;2.30;;;;;;;15.20;65.54;99302.16;105899;1278;22538;-88
2022/09/03 06:57:24;;;;;;;8.00;2.20;;;;;;;15.27;65.67;99299.21;105842;1280;22562;-86
2022/09/03 07:00:48;;;;;;;;;;;;;;;;;;;;;
2022/09/03 07:04:05;;;;;;;;;;;;;;;;;;;;;
2022/09/03 07:07:37;;;;;;;;;;;;;;;;;;;;;
2022/09/03 07:11:02;;;;;;;;;;;;;;;;;;;;;
2022/09/03 07:14:03;;;;;;;9.50;1.90;;;;;;;15.77;65.71;99292.17;104433;1291;24560;-89
2022/09/03 07:16:59;;;;;;;6.70;2.10;;;;;;;15.87;65.66;99291.91;104401;1294;22736;-84
2022/09/03 07:20:21;;;;;;;;;;;;;;;;;;;;;
2022/09/03 07:23:03;;;;;;;5.40;1.70;;;;;;;16.49;65.75;99295.44;104613;1290;24296;-86
2022/09/03 07:25:44;;;;;;;6.00;1.80;;;;;;;16.76;65.63;99299.02;104648;1290;24453;-85
2022/09/03 07:28:16;;;;;;;17.60;7.10;;;;;;;17.01;65.33;99295.58;104548;1295;22550;-88
2022/09/03 07:30:47;;;;;;;23.60;8.70;;;;;;;17.20;65.23;99295.52;104723;1290;22757;-85
2022/09/03 07:33:14;;;;;;;39.00;15.60;;;;;;;17.41;65.24;99293.86;104643;1293;22566;-85
2022/09/03 07:35:44;;;;;;;14.10;3.80;;;;;;;17.55;64.99;99288.20;104616;1291;22868;-87
2022/09/03 07:38:16;;;;;;;18.70;6.10;;;;;;;17.69;65.09;99287.77;104815;1293;22648;-86
2022/09/03 07:40:58;;;;;;;13.90;4.90;;;;;;;17.88;65.02;99288.83;104839;1291;24423;-86
2022/09/03 07:43:36;;;;;;;5.60;1.90;;;;;;;17.97;64.89;99290.41;104962;1284;24425;-85
2022/09/03 07:46:07;;;;;;;5.90;1.50;;;;;;;17.85;64.69;99289.07;105346;1287;22593;-87
2022/09/03 07:48:37;;;;;;;24.40;10.60;;;;;;;17.74;64.77;99292.54;105169;1284;25442;-84
2022/09/03 07:51:05;;;;;;;14.20;4.80;;;;;;;17.79;64.74;99293.98;105645;1278;24419;-86
2022/09/03 07:53:38;;;;;;;9.20;2.00;;;;;;;17.96;64.88;99295.58;105997;1278;22703;-85
2022/09/03 07:56:15;;;;;;;10.70;2.70;;;;;;;18.13;64.90;99291.02;105812;1278;22624;-89
2022/09/03 07:58:46;;;;;;;8.80;1.80;;;;;;;18.20;64.61;99295.84;105881;1278;22535;-85
2022/09/03 08:01:22;;;;;;;8.70;3.40;;;;;;;18.23;64.50;99294.14;105866;1278;22587;-85
2022/09/03 08:03:53;;;;;;;12.40;4.30;;;;;;;18.29;64.66;99298.36;105888;1278;22619;-86
2022/09/03 08:06:29;;;;;;;18.50;8.00;;;;;;;18.46;64.38;99299.56;105927;1278;23682;-85
2022/09/03 08:09:03;;;;;;;27.50;11.90;;;;;;;18.65;64.58;99297.52;105949;1277;22557;-86
2022/09/03 08:11:42;;;;;;;39.50;22.80;;;;;;;18.82;64.15;99295.20;106007;1277;24324;-86
2022/09/03 08:14:11;;;;;;;30.40;16.10;;;;;;;18.97;64.18;99290.08;105586;1278;22538;-88
2022/09/03 08:16:45;;;;;;;9.90;3.50;;;;;;;19.10;64.35;99290.10;105858;1278;25429;-85
2022/09/03 08:19:25;;;;;;;14.80;4.10;;;;;;;19.25;64.08;99288.02;105799;1281;26808;-87
2022/09/03 08:21:55;;;;;;;54.20;22.80;;;;;;;19.42;64.06;99291.48;105790;1279;23005;-86
2022/09/03 08:24:33;;;;;;;28.20;12.00;;;;;;;19.53;64.10;99288.48;105830;1281;22646;-87
2022/09/03 08:27:10;;;;;;;12.00;4.50;;;;;;;19.67;63.86;99284.92;105730;1277;26568;-86
2022/09/03 08:29:47;;;;;;;42.60;16.10;;;;;;;19.71;63.56;99284.45;105666;1278;22630;-88
2022/09/03 08:32:26;;;;;;;28.80;12.00;;;;;;;19.73;63.50;99279.59;105725;1278;22779;-87
2022/09/03 08:35:01;;;;;;;45.20;18.10;;;;;;;19.70;63.32;99279.30;105966;1277;22543;-85
2022/09/03 08:37:29;;;;;;;12.00;4.10;;;;;;;19.72;63.38;99278.38;106017;1278;24294;-86
2022/09/03 08:40:12;;;;;;;22.60;8.00;;;;;;;19.81;63.51;99274.61;105856;1277;22601;-88
2022/09/03 08:43:31;;;;;;;11.80;5.00;;;;;;;19.90;63.45;99275.15;106018;1278;23176;-87
2022/09/03 08:46:12;;;;;;;9.30;3.10;;;;;;;20.04;63.39;99276.71;106224;1277;22578;-87
2022/09/03 08:48:42;;;;;;;9.30;2.90;;;;;;;20.11;63.12;99275.67;106033;1277;22584;-85
2022/09/03 08:51:17;;;;;;;9.30;2.90;;;;;;;20.04;62.94;99273.86;106143;1280;25579;-86
2022/09/03 08:54:02;;;;;;;10.60;3.50;;;;;;;20.07;63.35;99272.86;105818;1278;22699;-86
2022/09/03 08:56:37;;;;;;;9.50;2.70;;;;;;;20.24;63.38;99270.08;106018;1278;24330;-85
2022/09/03 08:59:19;;;;;;;12.60;4.10;;;;;;;20.39;63.36;99269.83;106098;1277;22565;-88
2022/09/03 09:02:45;;;;;;;11.20;3.40;;;;;;;20.54;63.02;99265.17;105806;1278;22708;-84
2022/09/03 09:06:10;;;;;;;11.70;4.00;;;;;;;20.59;62.83;99269.11;105851;1277;25539;-89
2022/09/03 09:09:25;;;;;;;10.60;4.00;;;;;;;20.70;62.87;99270.48;105629;1278;24217;-86
2022/09/03 09:12:14;;;;;;;19.10;3.60;;;;;;;20.89;62.66;99269.76;105978;1277;22562;-87
2022/09/03 09:14:57;;;;;;;9.20;2.80;;;;;;;21.06;62.60;99268.77;105775;1279;22717;-90
2022/09/03 09:17:51;;;;;;;9.40;2.50;;;;;;;21.17;62.43;99261.23;105631;1279;25314;-85
2022/09/03 09:20:53;;;;;;;10.00;2.90;;;;;;;21.33;62.39;99261.71;105659;1279;25330;-87
2022/09/03 09:23:45;;;;;;;7.90;2.50;;;;;;;21.46;62.17;99255.23;105866;1277;22573;-88
2022/09/03 09:26:22;;;;;;;7.80;2.30;;;;;;;21.54;62.10;99258.96;106046;1277;22573;-88
2022/09/03 09:29:27;;;;;;;7.80;2.30;;;;;;;21.54;61.86;99252.11;105698;1278;25472;-88
2022/09/03 09:32:26;;;;;;;15.70;6.10;;;;;;;21.42;61.91;99258.71;105831;1278;22864;-90
2022/09/03 09:35:01;;;;;;;15.40;5.40;;;;;;;21.37;61.58;99258.45;105912;1277;25453;-87
2022/09/03 09:37:38;;;;;;;8.40;2.80;;;;;;;21.44;61.78;99259.82;105770;1278;24276;-88
2022/09/03 09:40:08;;;;;;;11.00;4.50;;;;;;;21.57;61.65;99251.23;105881;1278;24313;-86
2022/09/03 09:42:38;;;;;;;12.20;3.10;;;;;;;21.59;61.35;99255.65;105876;1278;22774;-87
2022/09/03 09:45:23;;;;;;;10.00;3.20;;;;;;;21.59;61.15;99255.02;105803;1278;22546;-89
2022/09/03 09:47:56;;;;;;;25.30;13.20;;;;;;;21.51;61.10;99252.06;105951;1277;22573;-91
2022/09/03 09:50:28;;;;;;;13.80;4.70;;;;;;;21.60;61.49;99251.58;105983;1278;22557;-86
2022/09/03 09:53:13;;;;;;;10.50;3.80;;;;;;;21.73;61.21;99249.20;105930;1278;24252;-88
2022/09/03 09:56:13;;;;;;;11.60;5.10;;;;;;;21.88;61.31;99253.44;105419;1277;24016;-88
2022/09/03 09:58:52;;;;;;;9.10;3.10;;;;;;;22.00;61.02;99249.81;105810;1277;24217;-89
2022/09/03 10:01:31;;;;;;;10.60;2.60;;;;;;;22.11;61.05;99248.01;105614;1277;22582;-87
2022/09/03 10:04:26;;;;;;;8.60;2.60;;;;;;;22.20;60.64;99242.94;105593;1280;23933;-88
2022/09/03 10:07:31;;;;;;;8.80;2.20;;;;;;;22.30;60.50;99244.33;105974;1278;23751;-88
2022/09/03 10:10:40;;;;;;;8.80;2.90;;;;;;;22.36;60.33;99248.69;105402;1278;22635;-90
2022/09/03 10:13:36;;;;;;;8.90;3.00;;;;;;;22.38;60.21;99245.61;105584;1278;24222;-86
2022/09/03 10:16:23;;;;;;;10.10;2.60;;;;;;;22.46;60.38;99238.27;105720;1278;24220;-88
2022/09/03 10:19:25;;;;;;;8.30;2.80;;;;;;;22.57;60.02;99239.73;105949;1278;24287;-87
2022/09/03 10:22:11;;;;;;;10.40;2.60;;;;;;;22.58;59.85;99242.25;106345;1277;22570;-91
2022/09/03 10:25:25;;;;;;;9.30;3.40;;;;;;;22.57;59.59;99240.04;105806;1278;25552;-88
2022/09/03 10:28:02;;;;;;;11.60;2.90;;;;;;;22.57;59.50;99233.20;105838;1278;22538;-89
2022/09/03 10:30:54;;;;;;;8.00;2.70;;;;;;;22.53;59.44;99229.16;106041;1278;22582;-87
2022/09/03 10:33:41;;;;;;;9.20;2.90;;;;;;;22.51;59.13;99232.61;105801;1280;22562;-89
2022/09/03 10:36:41;;;;;;;10.60;2.70;;;;;;;22.59;59.52;99232.58;105933;1278;25519;-90
2022/09/03 10:39:25;;;;;;;10.20;2.10;;;;;;;22.72;59.15;99235.23;105715;1278;22560;-89
2022/09/03 10:42:43;;;;;;;7.10;2.10;;;;;;;22.79;59.05;99233.48;105906;1278;22761;-92
2022/09/03 10:46:51;;;;;;;8.90;2.40;;;;;;;22.80;58.68;99233.45;106016;1278;25500;-91
2022/09/03 10:49:56;;;;;;;12.30;2.00;;;;;;;22.85;58.86;99227.05;105877;1276;22703;-89
2022/09/03 10:53:30;;;;;;;8.20;2.70;;;;;;;23.02;58.79;99229.52;105727;1277;22552;-86
2022/09/03 10:56:58;;;;;;;7.80;2.10;;;;;;;23.21;58.34;99219.23;105807;1278;22651;-89
2022/09/03 11:00:10;;;;;;;8.40;2.20;;;;;;;23.20;58.08;99219.55;105888;1277;22844;-89
2022/09/03 11:03:49;;;;;;;;;;;;;;;;;;;;;
2022/09/03 11:07:13;;;;;;;11.10;2.20;;;;;;;22.96;58.21;99204.11;106087;1278;25333;-87
2022/09/03 11:10:32;;;;;;;7.10;2.20;;;;;;;23.10;58.04;99204.86;105962;1276;26462;-90
2022/09/03 11:14:25;;;;;;;9.50;2.10;;;;;;;22.98;57.56;99200.63;105654;1284;22889;-91
2022/09/03 11:17:33;;;;;;;9.10;2.50;;;;;;;22.64;57.52;99203.52;104803;1288;25784;-85
2022/09/03 11:20:41;;;;;;;12.30;5.50;;;;;;;22.36;57.50;99203.55;104743;1288;25259;-88
2022/09/03 11:23:40;;;;;;;;;;;;;;;;;;;;;
2022/09/03 11:26:53;;;;;;;;;;;;;;;;;;;;;
2022/09/03 11:30:26;;;;;;;9.20;2.60;;;;;;;22.85;57.55;99184.61;104917;1288;22745;-87
2022/09/03 11:33:13;;;;;;;9.40;2.80;;;;;;;22.94;57.02;99181.36;104689;1290;24424;-88
2022/09/03 11:36:06;;;;;;;10.10;2.50;;;;;;;23.04;57.25;99179.97;104529;1289;22574;-89
2022/09/03 11:38:44;;;;;;;7.30;2.50;;;;;;;23.17;57.14;99174.08;104578;1289;22638;-87
2022/09/03 11:41:36;;;;;;;9.80;2.40;;;;;;;23.22;56.61;99172.43;104907;1289;25255;-87
2022/09/03 11:45:11;;;;;;;9.00;2.90;;;;;;;23.15;56.58;99172.06;104913;1288;23812;-87
2022/09/03 11:48:00;;;;;;;8.40;2.20;;;;;;;23.25;56.90;99171.20;104476;1290;22721;-89
2022/09/03 11:50:35;;;;;;;7.20;2.30;;;;;;;23.32;56.67;99174.98;105011;1278;22545;-87
2022/09/03 11:53:30;;;;;;;8.50;2.40;;;;;;;23.33;56.40;99168.12;105946;1277;22581;-86
2022/09/03 11:56:04;;;;;;;10.10;2.80;;;;;;;23.43;56.48;99170.35;105816;1279;22580;-89
2022/09/03 11:58:42;;;;;;;8.20;3.00;;;;;;;23.58;56.43;99164.80;106010;1278;25415;-87
2022/09/03 12:01:25;;;;;;;10.50;3.50;;;;;;;23.59;55.98;99160.41;106012;1277;22579;-89
2022/09/03 12:04:04;;;;;;;7.40;2.50;;;;;;;23.59;56.07;99167.69;105899;1276;24241;-87
2022/09/03 12:06:59;;;;;;;7.20;2.20;;;;;;;23.65;56.09;99163.18;105832;1278;22551;-86
2022/09/03 12:09:43;;;;;;;8.10;3.00;;;;;;;23.57;55.73;99160.67;106020;1276;25518;-88
2022/09/03 12:12:38;;;;;;;12.30;3.70;;;;;;;23.35;55.96;99160.62;106135;1276;24250;-87
2022/09/03 12:15:22;;;;;;;9.20;2.50;;;;;;;23.37;55.89;99159.46;105983;1277;25540;-88
2022/09/03 12:20:45;;;;;;;7.60;2.30;;;;;;;23.47;55.83;99165.70;105895;1280;22618;-92
2022/09/03 12:23:24;;;;;;;10.80;2.40;;;;;;;23.59;55.54;99162.21;103288;1277;3654203;-89
2022/09/03 12:25:52;;;;;;;7.60;2.30;;;;;;;23.71;55.68;99166.20;105879;1278;22587;-89
2022/09/03 12:28:28;;;;;;;9.50;2.30;;;;;;;23.63;55.31;99162.52;105983;1277;25279;-88
2022/09/03 12:31:19;;;;;;;6.40;1.90;;;;;;;23.56;55.35;99163.89;105686;1277;22562;-87
2022/09/03 12:34:02;;;;;;;5.80;2.10;;;;;;;23.64;55.40;99151.98;105627;1276;22537;-86
2022/09/03 12:36:59;;;;;;;8.50;3.00;;;;;;;23.76;55.42;99152.70;105919;1278;22564;-89
2022/09/03 12:39:30;;;;;;;8.20;2.10;;;;;;;23.98;55.47;99149.20;105918;1276;24366;-89
2022/09/03 12:42:21;;;;;;;11.30;2.70;;;;;;;24.25;55.40;99147.56;105851;1277;25307;-88
2022/09/03 12:45:01;;;;;;;6.30;2.00;;;;;;;24.52;55.11;99148.09;105859;1277;22559;-87
2022/09/03 12:47:38;;;;;;;7.30;2.20;;;;;;;24.67;54.95;99151.60;105906;1278;22564;-91
2022/09/03 12:50:15;;;;;;;9.40;3.40;;;;;;;24.74;54.69;99149.93;105736;1277;22578;-88
2022/09/03 12:52:51;;;;;;;8.10;2.60;;;;;;;24.60;54.51;99149.73;105769;1278;23929;-90
2022/09/03 12:55:39;;;;;;;8.30;2.40;;;;;;;24.36;54.28;99149.20;105758;1281;25420;-85
2022/09/03 12:58:27;;;;;;;8.30;2.50;;;;;;;23.87;54.36;99153.44;106294;1277;24201;-86
2022/09/03 13:01:19;;;;;;;6.40;2.30;;;;;;;23.44;54.49;99159.30;105746;1278;22707;-89
2022/09/03 13:04:03;;;;;;;12.20;4.40;;;;;;;23.16;54.67;99155.91;106193;1281;23959;-85
2022/09/03 13:07:13;;;;;;;10.70;4.30;;;;;;;22.83;54.46;99157.60;105759;1278;22542;-88
2022/09/03 13:09:41;;;;;;;9.70;2.60;;;;;;;22.52;54.35;99152.80;105567;1287;22645;-87
2022/09/03 13:12:27;;;;;;;9.10;2.50;;;;;;;22.29;54.50;99150.73;105913;1285;22557;-88
2022/09/03 13:14:55;;;;;;;6.90;2.70;;;;;;;22.10;54.57;99149.81;105334;1285;22815;-87
2022/09/03 13:17:35;;;;;;;8.70;2.50;;;;;;;21.98;54.56;99152.78;105638;1285;22616;-86
2022/09/03 13:21:05;;;;;;;8.70;2.40;;;;;;;21.78;54.48;99150.23;105130;1284;23162;-86
2022/09/03 13:24:05;;;;;;;7.30;2.20;;;;;;;21.53;54.29;99148.66;104818;1291;22604;-87
2022/09/03 13:27:18;;;;;;;7.70;2.70;;;;;;;21.34;54.44;99148.86;104959;1290;23829;-86
2022/09/03 13:30:02;;;;;;;10.00;3.70;;;;;;;21.23;54.44;99148.98;104807;1291;24296;-85
2022/09/03 13:32:49;;;;;;;13.60;5.20;;;;;;;21.21;54.46;99149.77;104636;1291;24275;-84
2022/09/03 13:35:48;;;;;;;20.80;11.10;;;;;;;21.18;54.47;99140.13;104524;1291;23053;-87
2022/09/03 13:38:32;;;;;;;16.90;6.70;;;;;;;21.11;54.44;99135.85;104346;1291;25338;-84